Fedora — SLKU — position and weather

sailwx.info

Track history (hours):
 
Tides and Currents Weather Stations Pressure Air Temp Water Temp Dewpoint Dewpoint Depression Visibility Wind Speed Wind Dir Waves Ship Positions

Fedora

Last reported at 2018-Feb-10 18:13 UTC. Time now 2018-Feb-24 19:29 UTC.
Position N 41°19' E 140°14'.
Warning: this ship's position is 14 days out of date.

Length 228 m; draft 8 m.

Type: Cargo ship. MMSI: 266259000.

Date/timePositionNaut miles runAvg speedWind from/ knotsBaromVisibWave heightAir tempDewpointWater temp
2018-Feb-10 18:13N 41°19' E 140°14'310.9
2018-Feb-10 17:58N 41°20' E 140°17'510.0
2018-Feb-10 17:31N 41°23' E 140°22'610.9
2018-Feb-10 17:00N 41°26' E 140°28'611.8
2018-Feb-10 16:30N 41°29' E 140°34'611.4
2018-Feb-10 16:00N 41°32' E 140°41'510.9
2018-Feb-10 15:30N 41°35' E 140°47'5 9.5
2018-Feb-10 15:01N 41°38' E 140°52'4 8.6
2018-Feb-10 14:30N 41°38' E 140°58'4 8.3
2018-Feb-10 14:01N 41°38' E 141°04'5 9.9
2018-Feb-10 13:29N 41°38' E 141°11'611.7
2018-Feb-10 13:01N 41°38' E 141°18'611.7
2018-Feb-10 12:31N 41°39' E 141°26'611.0
2018-Feb-10 12:00N 41°39' E 141°33'611.7
2018-Feb-10 11:30N 41°39' E 141°41'612.4
2018-Feb-10 10:59N 41°38' E 141°50'  
Track history (hours):
 
Tides and Currents Weather Stations Pressure Air Temp Water Temp Dewpoint Dewpoint Depression Visibility Wind Speed Wind Dir Waves Ship Positions

Fedora

Last reported at 2018-Feb-10 18:13 UTC. Time now 2018-Feb-24 19:29 UTC.
Position N 41°19' E 140°14'.
Warning: this ship's position is 14 days out of date.

Length 228 m; draft 8 m.

Type: Cargo ship. MMSI: 266259000.

Date/timePositionNaut miles runAvg speedWind from/ knotsBaromVisibWave heightAir tempDewpointWater temp
2018-Feb-10 18:13N 41°19' E 140°14'310.9
2018-Feb-10 17:58N 41°20' E 140°17'510.0
2018-Feb-10 17:31N 41°23' E 140°22'610.9
2018-Feb-10 17:00N 41°26' E 140°28'611.8
2018-Feb-10 16:30N 41°29' E 140°34'611.4
2018-Feb-10 16:00N 41°32' E 140°41'510.9
2018-Feb-10 15:30N 41°35' E 140°47'5 9.5
2018-Feb-10 15:01N 41°38' E 140°52'4 8.6
2018-Feb-10 14:30N 41°38' E 140°58'4 8.3
2018-Feb-10 14:01N 41°38' E 141°04'5 9.9
2018-Feb-10 13:29N 41°38' E 141°11'611.7
2018-Feb-10 13:01N 41°38' E 141°18'611.7
2018-Feb-10 12:31N 41°39' E 141°26'611.0
2018-Feb-10 12:00N 41°39' E 141°33'611.7
2018-Feb-10 11:30N 41°39' E 141°41'612.4
2018-Feb-10 10:59N 41°38' E 141°50'  

Dump ship's entire track history